sensor_id;sensor_type;location;lat;lon;timestamp;temperature;humidity
8994;DHT22;4532;50.886;4.700;2023-03-30T00:01:56;17.30;99.90
8994;DHT22;4532;50.886;4.700;2023-03-30T00:04:23;17.30;99.90
8994;DHT22;4532;50.886;4.700;2023-03-30T00:06:55;17.30;99.90
8994;DHT22;4532;50.886;4.700;2023-03-30T00:09:22;17.30;99.90
8994;DHT22;4532;50.886;4.700;2023-03-30T00:11:54;17.40;99.90
8994;DHT22;4532;50.886;4.700;2023-03-30T00:14:24;17.40;99.90
8994;DHT22;4532;50.886;4.700;2023-03-30T00:16:59;17.40;99.90
8994;DHT22;4532;50.886;4.700;2023-03-30T00:19:29;17.50;99.90
8994;DHT22;4532;50.886;4.700;2023-03-30T00:21:56;17.50;99.90
8994;DHT22;4532;50.886;4.700;2023-03-30T00:24:26;17.50;99.90
8994;DHT22;4532;50.886;4.700;2023-03-30T00:26:53;17.50;99.90
8994;DHT22;4532;50.886;4.700;2023-03-30T00:29:22;17.50;99.90
8994;DHT22;4532;50.886;4.700;2023-03-30T00:31:49;17.50;99.90
8994;DHT22;4532;50.886;4.700;2023-03-30T00:34:20;17.50;99.90
8994;DHT22;4532;50.886;4.700;2023-03-30T00:36:47;17.50;99.90
8994;DHT22;4532;50.886;4.700;2023-03-30T00:39:15;17.50;99.90
8994;DHT22;4532;50.886;4.700;2023-03-30T00:41:47;17.50;99.90
8994;DHT22;4532;50.886;4.700;2023-03-30T00:47:20;17.50;99.90
8994;DHT22;4532;50.886;4.700;2023-03-30T00:49:53;17.50;99.90
8994;DHT22;4532;50.886;4.700;2023-03-30T00:52:24;17.50;99.90
8994;DHT22;4532;50.886;4.700;2023-03-30T00:54:55;17.40;99.90
8994;DHT22;4532;50.886;4.700;2023-03-30T00:57:24;17.40;99.90
8994;DHT22;4532;50.886;4.700;2023-03-30T00:59:59;17.40;99.90
8994;DHT22;4532;50.886;4.700;2023-03-30T01:02:31;17.40;99.90
8994;DHT22;4532;50.886;4.700;2023-03-30T01:05:00;17.40;99.90
8994;DHT22;4532;50.886;4.700;2023-03-30T01:07:32;17.40;99.90
8994;DHT22;4532;50.886;4.700;2023-03-30T01:10:01;17.30;99.90
8994;DHT22;4532;50.886;4.700;2023-03-30T01:12:33;17.30;99.90
8994;DHT22;4532;50.886;4.700;2023-03-30T01:15:02;17.30;99.90
8994;DHT22;4532;50.886;4.700;2023-03-30T01:39:20;17.20;99.90
8994;DHT22;4532;50.886;4.700;2023-03-30T01:44:42;17.20;99.90
8994;DHT22;4532;50.886;4.700;2023-03-30T01:50:04;17.10;99.90
8994;DHT22;4532;50.886;4.700;2023-03-30T01:52:56;17.10;99.90
8994;DHT22;4532;50.886;4.700;2023-03-30T01:55:31;17.10;99.90
8994;DHT22;4532;50.886;4.700;2023-03-30T01:58:25;17.10;99.90
8994;DHT22;4532;50.886;4.700;2023-03-30T02:00:53;17.10;99.90
8994;DHT22;4532;50.886;4.700;2023-03-30T02:03:26;17.10;99.90
8994;DHT22;4532;50.886;4.700;2023-03-30T02:05:58;17.10;99.90
8994;DHT22;4532;50.886;4.700;2023-03-30T02:08:34;17.10;99.90
8994;DHT22;4532;50.886;4.700;2023-03-30T02:11:04;17.10;99.90
8994;DHT22;4532;50.886;4.700;2023-03-30T02:13:35;17.10;99.90
8994;DHT22;4532;50.886;4.700;2023-03-30T02:16:14;17.20;99.90
8994;DHT22;4532;50.886;4.700;2023-03-30T02:18:45;17.20;99.90
8994;DHT22;4532;50.886;4.700;2023-03-30T02:21:14;17.20;99.90
8994;DHT22;4532;50.886;4.700;2023-03-30T02:23:43;17.20;99.90
8994;DHT22;4532;50.886;4.700;2023-03-30T02:26:14;17.10;99.90
8994;DHT22;4532;50.886;4.700;2023-03-30T02:28:46;17.20;99.90
8994;DHT22;4532;50.886;4.700;2023-03-30T02:31:14;17.20;99.90
8994;DHT22;4532;50.886;4.700;2023-03-30T02:39:57;17.20;99.90
8994;DHT22;4532;50.886;4.700;2023-03-30T02:50:35;17.20;99.90
8994;DHT22;4532;50.886;4.700;2023-03-30T02:55:52;17.20;99.90
8994;DHT22;4532;50.886;4.700;2023-03-30T02:58:54;17.20;99.90
8994;DHT22;4532;50.886;4.700;2023-03-30T03:01:49;17.10;99.90
8994;DHT22;4532;50.886;4.700;2023-03-30T03:04:23;17.20;99.90
8994;DHT22;4532;50.886;4.700;2023-03-30T03:06:57;17.20;99.90
8994;DHT22;4532;50.886;4.700;2023-03-30T03:09:27;17.20;99.90
8994;DHT22;4532;50.886;4.700;2023-03-30T03:11:57;17.20;99.90
8994;DHT22;4532;50.886;4.700;2023-03-30T03:14:24;17.20;99.90
8994;DHT22;4532;50.886;4.700;2023-03-30T03:16:55;17.20;99.90
8994;DHT22;4532;50.886;4.700;2023-03-30T03:19:26;17.20;99.90
8994;DHT22;4532;50.886;4.700;2023-03-30T03:21:54;17.20;99.90
8994;DHT22;4532;50.886;4.700;2023-03-30T03:24:23;17.20;99.90
8994;DHT22;4532;50.886;4.700;2023-03-30T03:26:51;17.20;99.90
8994;DHT22;4532;50.886;4.700;2023-03-30T03:29:23;17.20;99.90
8994;DHT22;4532;50.886;4.700;2023-03-30T03:31:50;17.20;99.90
8994;DHT22;4532;50.886;4.700;2023-03-30T03:34:22;17.20;99.90
8994;DHT22;4532;50.886;4.700;2023-03-30T03:36:52;17.20;99.90
8994;DHT22;4532;50.886;4.700;2023-03-30T03:39:20;17.20;99.90
8994;DHT22;4532;50.886;4.700;2023-03-30T03:41:50;17.20;99.90
8994;DHT22;4532;50.886;4.700;2023-03-30T03:44:17;17.20;99.90
8994;DHT22;4532;50.886;4.700;2023-03-30T03:46:47;17.10;99.90
8994;DHT22;4532;50.886;4.700;2023-03-30T03:49:17;17.10;99.90
8994;DHT22;4532;50.886;4.700;2023-03-30T03:51:48;17.10;99.90
8994;DHT22;4532;50.886;4.700;2023-03-30T03:54:16;17.10;99.90
8994;DHT22;4532;50.886;4.700;2023-03-30T03:56:43;17.00;99.90
8994;DHT22;4532;50.886;4.700;2023-03-30T03:59:10;17.00;99.90
8994;DHT22;4532;50.886;4.700;2023-03-30T04:01:41;17.00;99.90
8994;DHT22;4532;50.886;4.700;2023-03-30T04:04:10;17.00;99.90
8994;DHT22;4532;50.886;4.700;2023-03-30T04:06:43;17.00;99.90
8994;DHT22;4532;50.886;4.700;2023-03-30T04:09:13;16.90;99.90
8994;DHT22;4532;50.886;4.700;2023-03-30T04:11:47;16.90;99.90
8994;DHT22;4532;50.886;4.700;2023-03-30T04:14:15;16.90;99.90
8994;DHT22;4532;50.886;4.700;2023-03-30T04:16:44;16.90;99.90
8994;DHT22;4532;50.886;4.700;2023-03-30T04:19:14;16.90;99.90
8994;DHT22;4532;50.886;4.700;2023-03-30T04:21:45;16.90;99.90
8994;DHT22;4532;50.886;4.700;2023-03-30T04:24:17;16.90;99.90
8994;DHT22;4532;50.886;4.700;2023-03-30T04:26:45;17.00;99.90
8994;DHT22;4532;50.886;4.700;2023-03-30T04:29:15;16.90;99.90
8994;DHT22;4532;50.886;4.700;2023-03-30T04:31:46;16.90;99.90
8994;DHT22;4532;50.886;4.700;2023-03-30T04:34:19;16.90;99.90
8994;DHT22;4532;50.886;4.700;2023-03-30T04:36:50;16.90;99.90
8994;DHT22;4532;50.886;4.700;2023-03-30T04:39:19;16.90;99.90
8994;DHT22;4532;50.886;4.700;2023-03-30T04:41:49;16.90;99.90
8994;DHT22;4532;50.886;4.700;2023-03-30T04:44:18;16.90;99.90
8994;DHT22;4532;50.886;4.700;2023-03-30T04:46:46;16.90;99.90
8994;DHT22;4532;50.886;4.700;2023-03-30T04:49:15;16.90;99.90
8994;DHT22;4532;50.886;4.700;2023-03-30T04:51:46;16.90;99.90
8994;DHT22;4532;50.886;4.700;2023-03-30T04:54:13;17.00;99.90
8994;DHT22;4532;50.886;4.700;2023-03-30T04:56:40;17.00;99.90
8994;DHT22;4532;50.886;4.700;2023-03-30T04:59:10;17.00;99.90
8994;DHT22;4532;50.886;4.700;2023-03-30T05:01:40;17.00;99.90
8994;DHT22;4532;50.886;4.700;2023-03-30T05:04:10;17.00;99.90
8994;DHT22;4532;50.886;4.700;2023-03-30T05:06:37;17.00;99.90
8994;DHT22;4532;50.886;4.700;2023-03-30T05:09:09;17.00;99.90
8994;DHT22;4532;50.886;4.700;2023-03-30T05:11:41;17.00;99.90
8994;DHT22;4532;50.886;4.700;2023-03-30T05:14:13;16.90;99.90
8994;DHT22;4532;50.886;4.700;2023-03-30T05:16:40;16.90;99.90
8994;DHT22;4532;50.886;4.700;2023-03-30T05:19:10;16.80;99.90
8994;DHT22;4532;50.886;4.700;2023-03-30T05:21:45;16.80;99.90
8994;DHT22;4532;50.886;4.700;2023-03-30T05:24:15;16.80;99.90
8994;DHT22;4532;50.886;4.700;2023-03-30T05:26:47;16.70;99.90
8994;DHT22;4532;50.886;4.700;2023-03-30T05:29:16;16.70;99.90
8994;DHT22;4532;50.886;4.700;2023-03-30T05:31:44;16.70;99.90
8994;DHT22;4532;50.886;4.700;2023-03-30T05:34:11;16.70;99.90
8994;DHT22;4532;50.886;4.700;2023-03-30T05:36:38;16.70;99.90
8994;DHT22;4532;50.886;4.700;2023-03-30T05:39:11;16.70;99.90
8994;DHT22;4532;50.886;4.700;2023-03-30T05:41:40;16.70;99.90
8994;DHT22;4532;50.886;4.700;2023-03-30T05:44:09;16.60;99.90
8994;DHT22;4532;50.886;4.700;2023-03-30T05:46:39;16.50;99.90
8994;DHT22;4532;50.886;4.700;2023-03-30T05:49:06;16.50;99.90
8994;DHT22;4532;50.886;4.700;2023-03-30T05:51:34;16.50;99.90
8994;DHT22;4532;50.886;4.700;2023-03-30T05:54:01;16.40;99.90
8994;DHT22;4532;50.886;4.700;2023-03-30T05:56:29;16.40;99.90
8994;DHT22;4532;50.886;4.700;2023-03-30T05:59:01;16.40;99.90
8994;DHT22;4532;50.886;4.700;2023-03-30T06:01:30;16.30;99.90
8994;DHT22;4532;50.886;4.700;2023-03-30T06:03:57;16.20;99.90
8994;DHT22;4532;50.886;4.700;2023-03-30T06:06:27;16.20;99.90
8994;DHT22;4532;50.886;4.700;2023-03-30T06:08:55;16.20;99.90
8994;DHT22;4532;50.886;4.700;2023-03-30T06:11:24;16.10;99.90
8994;DHT22;4532;50.886;4.700;2023-03-30T06:13:54;16.10;99.90
8994;DHT22;4532;50.886;4.700;2023-03-30T06:16:23;16.10;99.90
8994;DHT22;4532;50.886;4.700;2023-03-30T06:18:55;16.10;99.90
8994;DHT22;4532;50.886;4.700;2023-03-30T06:21:22;16.10;99.90
8994;DHT22;4532;50.886;4.700;2023-03-30T06:23:49;16.10;99.90
8994;DHT22;4532;50.886;4.700;2023-03-30T06:26:17;16.10;99.90
8994;DHT22;4532;50.886;4.700;2023-03-30T06:28:49;16.10;99.90
8994;DHT22;4532;50.886;4.700;2023-03-30T06:31:18;16.10;99.90
8994;DHT22;4532;50.886;4.700;2023-03-30T06:33:46;16.10;99.90
8994;DHT22;4532;50.886;4.700;2023-03-30T06:36:15;16.00;99.90
8994;DHT22;4532;50.886;4.700;2023-03-30T06:38:42;16.00;99.90
8994;DHT22;4532;50.886;4.700;2023-03-30T06:41:13;16.10;99.90
8994;DHT22;4532;50.886;4.700;2023-03-30T06:43:43;16.10;99.90
8994;DHT22;4532;50.886;4.700;2023-03-30T06:46:13;16.00;99.90
8994;DHT22;4532;50.886;4.700;2023-03-30T06:48:43;16.10;99.90
8994;DHT22;4532;50.886;4.700;2023-03-30T06:51:13;16.10;99.90
8994;DHT22;4532;50.886;4.700;2023-03-30T06:53:40;16.10;99.90
8994;DHT22;4532;50.886;4.700;2023-03-30T06:56:08;16.10;99.90
8994;DHT22;4532;50.886;4.700;2023-03-30T06:58:37;16.10;99.90
8994;DHT22;4532;50.886;4.700;2023-03-30T07:01:09;16.10;99.90
8994;DHT22;4532;50.886;4.700;2023-03-30T07:03:39;16.10;99.90
8994;DHT22;4532;50.886;4.700;2023-03-30T07:06:11;16.10;99.90
8994;DHT22;4532;50.886;4.700;2023-03-30T07:08:39;16.10;99.90
8994;DHT22;4532;50.886;4.700;2023-03-30T07:11:06;16.10;99.90
8994;DHT22;4532;50.886;4.700;2023-03-30T07:13:33;16.00;99.90
8994;DHT22;4532;50.886;4.700;2023-03-30T07:16:07;16.00;99.90
8994;DHT22;4532;50.886;4.700;2023-03-30T07:18:34;16.00;99.90
8994;DHT22;4532;50.886;4.700;2023-03-30T07:21:02;16.00;99.90
8994;DHT22;4532;50.886;4.700;2023-03-30T07:23:31;16.00;99.90
8994;DHT22;4532;50.886;4.700;2023-03-30T07:25:58;16.00;99.90
8994;DHT22;4532;50.886;4.700;2023-03-30T07:28:30;16.00;99.90
8994;DHT22;4532;50.886;4.700;2023-03-30T07:31:05;16.00;99.90
8994;DHT22;4532;50.886;4.700;2023-03-30T07:33:34;16.00;99.90
8994;DHT22;4532;50.886;4.700;2023-03-30T07:36:03;16.00;99.90
8994;DHT22;4532;50.886;4.700;2023-03-30T07:38:31;16.00;99.90
8994;DHT22;4532;50.886;4.700;2023-03-30T07:40:58;16.10;99.90
8994;DHT22;4532;50.886;4.700;2023-03-30T07:43:26;16.10;99.90
8994;DHT22;4532;50.886;4.700;2023-03-30T07:45:54;16.10;99.90
8994;DHT22;4532;50.886;4.700;2023-03-30T07:48:26;16.10;99.90
8994;DHT22;4532;50.886;4.700;2023-03-30T07:51:08;16.10;99.90
8994;DHT22;4532;50.886;4.700;2023-03-30T07:53:36;16.10;99.90
8994;DHT22;4532;50.886;4.700;2023-03-30T07:56:07;16.20;99.90
8994;DHT22;4532;50.886;4.700;2023-03-30T07:58:34;16.20;99.90
8994;DHT22;4532;50.886;4.700;2023-03-30T08:01:03;16.20;99.90
8994;DHT22;4532;50.886;4.700;2023-03-30T08:03:36;16.20;99.90
8994;DHT22;4532;50.886;4.700;2023-03-30T08:06:06;16.20;99.90
8994;DHT22;4532;50.886;4.700;2023-03-30T08:08:37;16.20;99.90
8994;DHT22;4532;50.886;4.700;2023-03-30T08:11:09;16.20;99.90
8994;DHT22;4532;50.886;4.700;2023-03-30T08:13:38;16.20;99.90
8994;DHT22;4532;50.886;4.700;2023-03-30T08:16:10;16.20;99.90
8994;DHT22;4532;50.886;4.700;2023-03-30T08:18:37;16.20;99.90
8994;DHT22;4532;50.886;4.700;2023-03-30T08:21:07;16.20;99.90
8994;DHT22;4532;50.886;4.700;2023-03-30T08:23:37;16.20;99.90
8994;DHT22;4532;50.886;4.700;2023-03-30T08:26:07;16.20;99.90
8994;DHT22;4532;50.886;4.700;2023-03-30T08:28:36;16.20;99.90
8994;DHT22;4532;50.886;4.700;2023-03-30T08:31:05;16.30;99.90
8994;DHT22;4532;50.886;4.700;2023-03-30T08:33:37;16.30;99.90
8994;DHT22;4532;50.886;4.700;2023-03-30T08:36:07;16.30;99.90
8994;DHT22;4532;50.886;4.700;2023-03-30T08:38:39;16.30;99.90
8994;DHT22;4532;50.886;4.700;2023-03-30T08:44:01;16.30;99.90
8994;DHT22;4532;50.886;4.700;2023-03-30T08:46:33;16.20;99.90
8994;DHT22;4532;50.886;4.700;2023-03-30T08:49:10;16.20;99.90
8994;DHT22;4532;50.886;4.700;2023-03-30T08:51:43;16.20;99.90
8994;DHT22;4532;50.886;4.700;2023-03-30T08:54:17;16.00;99.90
8994;DHT22;4532;50.886;4.700;2023-03-30T09:02:50;16.00;99.90
8994;DHT22;4532;50.886;4.700;2023-03-30T09:05:31;16.00;99.90
8994;DHT22;4532;50.886;4.700;2023-03-30T09:08:20;16.00;99.90
8994;DHT22;4532;50.886;4.700;2023-03-30T09:10:59;16.00;99.90
8994;DHT22;4532;50.886;4.700;2023-03-30T09:13:33;16.00;99.90
8994;DHT22;4532;50.886;4.700;2023-03-30T09:16:28;16.00;99.90
8994;DHT22;4532;50.886;4.700;2023-03-30T09:19:00;16.10;99.90
8994;DHT22;4532;50.886;4.700;2023-03-30T09:21:30;16.10;99.90
8994;DHT22;4532;50.886;4.700;2023-03-30T09:24:00;16.10;99.90
8994;DHT22;4532;50.886;4.700;2023-03-30T09:27:06;16.20;99.90
8994;DHT22;4532;50.886;4.700;2023-03-30T09:29:51;16.20;99.90
8994;DHT22;4532;50.886;4.700;2023-03-30T09:32:35;16.30;99.90
8994;DHT22;4532;50.886;4.700;2023-03-30T09:35:17;16.40;99.90
8994;DHT22;4532;50.886;4.700;2023-03-30T09:37:53;16.40;99.90
8994;DHT22;4532;50.886;4.700;2023-03-30T09:46:18;16.60;99.90
8994;DHT22;4532;50.886;4.700;2023-03-30T09:48:49;16.60;99.90
8994;DHT22;4532;50.886;4.700;2023-03-30T09:51:23;16.60;99.90
8994;DHT22;4532;50.886;4.700;2023-03-30T09:54:01;16.70;99.90
8994;DHT22;4532;50.886;4.700;2023-03-30T09:56:41;16.70;99.90
8994;DHT22;4532;50.886;4.700;2023-03-30T09:59:37;16.70;99.90
8994;DHT22;4532;50.886;4.700;2023-03-30T10:07:23;16.70;99.90
8994;DHT22;4532;50.886;4.700;2023-03-30T10:09:53;16.70;99.90
8994;DHT22;4532;50.886;4.700;2023-03-30T10:12:23;16.70;99.90
8994;DHT22;4532;50.886;4.700;2023-03-30T10:14:56;16.70;99.90
8994;DHT22;4532;50.886;4.700;2023-03-30T10:17:30;16.80;99.90
8994;DHT22;4532;50.886;4.700;2023-03-30T10:22:58;16.80;99.90
8994;DHT22;4532;50.886;4.700;2023-03-30T10:25:27;16.80;99.90
8994;DHT22;4532;50.886;4.700;2023-03-30T10:27:59;16.80;99.90
8994;DHT22;4532;50.886;4.700;2023-03-30T10:30:31;16.70;99.90
8994;DHT22;4532;50.886;4.700;2023-03-30T10:33:02;16.70;99.90
8994;DHT22;4532;50.886;4.700;2023-03-30T10:35:34;16.60;99.90
8994;DHT22;4532;50.886;4.700;2023-03-30T10:38:04;16.60;99.90
8994;DHT22;4532;50.886;4.700;2023-03-30T10:40:40;16.50;99.90
8994;DHT22;4532;50.886;4.700;2023-03-30T10:43:18;16.40;99.90
8994;DHT22;4532;50.886;4.700;2023-03-30T10:45:54;16.30;99.90
8994;DHT22;4532;50.886;4.700;2023-03-30T10:51:40;16.20;99.90
8994;DHT22;4532;50.886;4.700;2023-03-30T11:02:34;16.10;99.90
8994;DHT22;4532;50.886;4.700;2023-03-30T11:05:18;16.10;99.90
8994;DHT22;4532;50.886;4.700;2023-03-30T11:07:56;16.10;99.90
8994;DHT22;4532;50.886;4.700;2023-03-30T11:10:31;16.10;99.90
8994;DHT22;4532;50.886;4.700;2023-03-30T11:13:18;16.10;99.90
8994;DHT22;4532;50.886;4.700;2023-03-30T11:15:54;16.10;99.90
8994;DHT22;4532;50.886;4.700;2023-03-30T11:18:31;16.10;99.90
8994;DHT22;4532;50.886;4.700;2023-03-30T11:23:54;16.20;99.90
8994;DHT22;4532;50.886;4.700;2023-03-30T11:26:33;16.20;99.90
8994;DHT22;4532;50.886;4.700;2023-03-30T11:29:25;16.20;99.90
8994;DHT22;4532;50.886;4.700;2023-03-30T11:37:35;16.10;99.90
8994;DHT22;4532;50.886;4.700;2023-03-30T11:40:19;16.20;99.90
8994;DHT22;4532;50.886;4.700;2023-03-30T11:42:55;16.10;99.90
8994;DHT22;4532;50.886;4.700;2023-03-30T11:56:04;16.20;99.90
8994;DHT22;4532;50.886;4.700;2023-03-30T11:58:37;16.20;99.90
8994;DHT22;4532;50.886;4.700;2023-03-30T12:01:20;16.20;99.90
8994;DHT22;4532;50.886;4.700;2023-03-30T12:04:18;16.20;99.90
8994;DHT22;4532;50.886;4.700;2023-03-30T12:09:30;16.30;99.90
8994;DHT22;4532;50.886;4.700;2023-03-30T12:20:46;16.60;99.90
8994;DHT22;4532;50.886;4.700;2023-03-30T12:26:17;16.80;99.90
8994;DHT22;4532;50.886;4.700;2023-03-30T12:34:31;17.00;99.90
8994;DHT22;4532;50.886;4.700;2023-03-30T12:39:54;17.20;99.90
8994;DHT22;4532;50.886;4.700;2023-03-30T12:42:24;17.20;99.90
8994;DHT22;4532;50.886;4.700;2023-03-30T12:45:33;17.30;99.90
8994;DHT22;4532;50.886;4.700;2023-03-30T12:56:05;17.50;99.90
8994;DHT22;4532;50.886;4.700;2023-03-30T13:04:36;17.70;99.90
8994;DHT22;4532;50.886;4.700;2023-03-30T13:07:16;17.70;99.90
8994;DHT22;4532;50.886;4.700;2023-03-30T13:09:58;17.80;99.90
8994;DHT22;4532;50.886;4.700;2023-03-30T13:12:39;17.90;99.90
8994;DHT22;4532;50.886;4.700;2023-03-30T13:15:30;18.00;99.90
8994;DHT22;4532;50.886;4.700;2023-03-30T13:18:01;17.90;99.90
8994;DHT22;4532;50.886;4.700;2023-03-30T13:25:43;18.00;99.90
8994;DHT22;4532;50.886;4.700;2023-03-30T13:28:45;18.00;99.90
8994;DHT22;4532;50.886;4.700;2023-03-30T13:37:53;17.90;99.90
8994;DHT22;4532;50.886;4.700;2023-03-30T13:51:29;17.90;99.90
8994;DHT22;4532;50.886;4.700;2023-03-30T13:54:06;18.00;99.90
8994;DHT22;4532;50.886;4.700;2023-03-30T13:56:40;18.00;99.90
8994;DHT22;4532;50.886;4.700;2023-03-30T13:59:19;18.10;99.90
8994;DHT22;4532;50.886;4.700;2023-03-30T14:01:57;18.10;99.90
8994;DHT22;4532;50.886;4.700;2023-03-30T14:04:30;18.20;99.90
8994;DHT22;4532;50.886;4.700;2023-03-30T14:07:04;18.20;99.90
8994;DHT22;4532;50.886;4.700;2023-03-30T14:09:32;18.30;99.90
8994;DHT22;4532;50.886;4.700;2023-03-30T14:12:00;18.30;99.90
8994;DHT22;4532;50.886;4.700;2023-03-30T14:14:40;18.30;99.90
8994;DHT22;4532;50.886;4.700;2023-03-30T14:17:19;18.20;99.90
8994;DHT22;4532;50.886;4.700;2023-03-30T14:23:35;18.30;99.90
8994;DHT22;4532;50.886;4.700;2023-03-30T14:26:21;18.20;99.90
8994;DHT22;4532;50.886;4.700;2023-03-30T14:29:02;18.30;99.90
8994;DHT22;4532;50.886;4.700;2023-03-30T14:31:40;18.30;99.90
8994;DHT22;4532;50.886;4.700;2023-03-30T14:34:29;18.30;99.90
8994;DHT22;4532;50.886;4.700;2023-03-30T14:37:03;18.30;99.90
8994;DHT22;4532;50.886;4.700;2023-03-30T14:39:38;18.30;99.90
8994;DHT22;4532;50.886;4.700;2023-03-30T14:42:21;18.30;99.90
8994;DHT22;4532;50.886;4.700;2023-03-30T14:44:54;18.40;99.90
8994;DHT22;4532;50.886;4.700;2023-03-30T14:47:26;18.40;99.90
8994;DHT22;4532;50.886;4.700;2023-03-30T14:50:03;18.30;99.90
8994;DHT22;4532;50.886;4.700;2023-03-30T14:52:37;18.20;99.90
8994;DHT22;4532;50.886;4.700;2023-03-30T14:55:11;18.10;99.90
8994;DHT22;4532;50.886;4.700;2023-03-30T14:57:45;18.10;99.90
8994;DHT22;4532;50.886;4.700;2023-03-30T15:00:17;18.00;99.90
8994;DHT22;4532;50.886;4.700;2023-03-30T15:02:56;18.00;99.90
8994;DHT22;4532;50.886;4.700;2023-03-30T15:05:29;17.90;99.90
8994;DHT22;4532;50.886;4.700;2023-03-30T15:07:58;17.90;99.90
8994;DHT22;4532;50.886;4.700;2023-03-30T15:10:41;17.80;99.90
8994;DHT22;4532;50.886;4.700;2023-03-30T15:13:17;17.70;99.90
8994;DHT22;4532;50.886;4.700;2023-03-30T15:15:46;17.70;99.90
8994;DHT22;4532;50.886;4.700;2023-03-30T15:18:18;17.70;99.90
8994;DHT22;4532;50.886;4.700;2023-03-30T15:20:47;17.60;99.90
8994;DHT22;4532;50.886;4.700;2023-03-30T15:23:16;17.60;99.90
8994;DHT22;4532;50.886;4.700;2023-03-30T15:25:49;17.60;99.90
8994;DHT22;4532;50.886;4.700;2023-03-30T15:28:18;17.60;99.90
8994;DHT22;4532;50.886;4.700;2023-03-30T15:30:55;17.60;99.90
8994;DHT22;4532;50.886;4.700;2023-03-30T15:33:34;17.60;99.90
8994;DHT22;4532;50.886;4.700;2023-03-30T15:36:52;17.60;99.90
8994;DHT22;4532;50.886;4.700;2023-03-30T15:38:56;17.60;99.90
8994;DHT22;4532;50.886;4.700;2023-03-30T15:42:08;17.60;99.90
8994;DHT22;4532;50.886;4.700;2023-03-30T15:44:38;17.70;99.90
8994;DHT22;4532;50.886;4.700;2023-03-30T15:47:13;17.70;99.90
8994;DHT22;4532;50.886;4.700;2023-03-30T15:49:46;17.70;99.90
8994;DHT22;4532;50.886;4.700;2023-03-30T15:52:23;17.80;99.90
8994;DHT22;4532;50.886;4.700;2023-03-30T15:54:53;17.70;99.90
8994;DHT22;4532;50.886;4.700;2023-03-30T15:57:28;17.70;99.90
8994;DHT22;4532;50.886;4.700;2023-03-30T16:00:02;17.70;99.90
8994;DHT22;4532;50.886;4.700;2023-03-30T16:02:46;17.70;99.90
8994;DHT22;4532;50.886;4.700;2023-03-30T16:05:21;17.80;99.90
8994;DHT22;4532;50.886;4.700;2023-03-30T16:07:49;17.90;99.90
8994;DHT22;4532;50.886;4.700;2023-03-30T16:10:21;17.90;99.90
8994;DHT22;4532;50.886;4.700;2023-03-30T16:12:54;18.00;99.90
8994;DHT22;4532;50.886;4.700;2023-03-30T16:15:28;18.00;99.90
8994;DHT22;4532;50.886;4.700;2023-03-30T16:17:58;18.00;99.90
8994;DHT22;4532;50.886;4.700;2023-03-30T16:20:30;18.00;99.90
8994;DHT22;4532;50.886;4.700;2023-03-30T16:22:57;18.00;99.90
8994;DHT22;4532;50.886;4.700;2023-03-30T16:25:26;18.10;99.90
8994;DHT22;4532;50.886;4.700;2023-03-30T16:28:15;18.10;99.90
8994;DHT22;4532;50.886;4.700;2023-03-30T16:30:51;18.10;99.90
8994;DHT22;4532;50.886;4.700;2023-03-30T16:33:19;18.20;99.90
8994;DHT22;4532;50.886;4.700;2023-03-30T16:35:46;18.20;99.90
8994;DHT22;4532;50.886;4.700;2023-03-30T16:38:16;18.20;99.90
8994;DHT22;4532;50.886;4.700;2023-03-30T16:40:46;18.30;99.90
8994;DHT22;4532;50.886;4.700;2023-03-30T16:43:16;18.30;99.90
8994;DHT22;4532;50.886;4.700;2023-03-30T16:45:44;18.30;99.90
8994;DHT22;4532;50.886;4.700;2023-03-30T16:48:14;18.30;99.90
8994;DHT22;4532;50.886;4.700;2023-03-30T16:50:52;18.30;99.90
8994;DHT22;4532;50.886;4.700;2023-03-30T16:53:19;18.30;99.90
8994;DHT22;4532;50.886;4.700;2023-03-30T16:55:47;18.30;99.90
8994;DHT22;4532;50.886;4.700;2023-03-30T16:58:15;18.30;99.90
8994;DHT22;4532;50.886;4.700;2023-03-30T17:00:47;18.30;99.90
8994;DHT22;4532;50.886;4.700;2023-03-30T17:03:17;18.40;99.90
8994;DHT22;4532;50.886;4.700;2023-03-30T17:05:46;18.40;99.90
8994;DHT22;4532;50.886;4.700;2023-03-30T17:08:20;18.30;99.90
8994;DHT22;4532;50.886;4.700;2023-03-30T17:10:53;18.30;99.90
8994;DHT22;4532;50.886;4.700;2023-03-30T17:13:20;18.20;99.90
8994;DHT22;4532;50.886;4.700;2023-03-30T17:15:47;18.30;99.90
8994;DHT22;4532;50.886;4.700;2023-03-30T17:18:17;18.30;99.90
8994;DHT22;4532;50.886;4.700;2023-03-30T17:20:48;18.20;99.90
8994;DHT22;4532;50.886;4.700;2023-03-30T17:23:20;18.20;99.90
8994;DHT22;4532;50.886;4.700;2023-03-30T17:25:48;18.00;99.90
8994;DHT22;4532;50.886;4.700;2023-03-30T17:31:02;17.90;99.90
8994;DHT22;4532;50.886;4.700;2023-03-30T17:33:29;17.90;99.90
8994;DHT22;4532;50.886;4.700;2023-03-30T17:36:15;17.80;99.90
8994;DHT22;4532;50.886;4.700;2023-03-30T17:38:45;17.80;99.90
8994;DHT22;4532;50.886;4.700;2023-03-30T17:41:13;17.80;99.90
8994;DHT22;4532;50.886;4.700;2023-03-30T17:43:41;17.70;99.90
8994;DHT22;4532;50.886;4.700;2023-03-30T17:46:17;17.70;99.90
8994;DHT22;4532;50.886;4.700;2023-03-30T17:48:45;17.60;99.90
8994;DHT22;4532;50.886;4.700;2023-03-30T17:51:17;17.50;99.90
8994;DHT22;4532;50.886;4.700;2023-03-30T17:53:44;17.50;99.90
8994;DHT22;4532;50.886;4.700;2023-03-30T17:56:14;17.50;99.90
8994;DHT22;4532;50.886;4.700;2023-03-30T17:58:43;17.40;99.90
8994;DHT22;4532;50.886;4.700;2023-03-30T18:01:12;17.40;99.90
8994;DHT22;4532;50.886;4.700;2023-03-30T18:03:42;17.30;99.90
8994;DHT22;4532;50.886;4.700;2023-03-30T18:06:12;17.30;99.90
8994;DHT22;4532;50.886;4.700;2023-03-30T18:08:39;17.20;99.90
8994;DHT22;4532;50.886;4.700;2023-03-30T18:11:13;17.20;99.90
8994;DHT22;4532;50.886;4.700;2023-03-30T18:13:45;17.20;99.90
8994;DHT22;4532;50.886;4.700;2023-03-30T18:16:12;17.10;99.90
8994;DHT22;4532;50.886;4.700;2023-03-30T18:18:39;17.10;99.90
8994;DHT22;4532;50.886;4.700;2023-03-30T18:21:08;17.00;99.90
8994;DHT22;4532;50.886;4.700;2023-03-30T18:23:38;16.90;99.90
8994;DHT22;4532;50.886;4.700;2023-03-30T18:26:10;16.90;99.90
8994;DHT22;4532;50.886;4.700;2023-03-30T18:28:38;16.80;99.90
8994;DHT22;4532;50.886;4.700;2023-03-30T18:31:08;16.80;99.90
8994;DHT22;4532;50.886;4.700;2023-03-30T18:33:38;16.70;99.90
8994;DHT22;4532;50.886;4.700;2023-03-30T18:36:09;16.60;99.90
8994;DHT22;4532;50.886;4.700;2023-03-30T18:38:41;16.60;99.90
8994;DHT22;4532;50.886;4.700;2023-03-30T18:41:11;16.50;99.90
8994;DHT22;4532;50.886;4.700;2023-03-30T18:43:39;16.50;99.90
8994;DHT22;4532;50.886;4.700;2023-03-30T18:46:09;16.40;99.90
8994;DHT22;4532;50.886;4.700;2023-03-30T18:48:40;16.30;99.90
8994;DHT22;4532;50.886;4.700;2023-03-30T18:51:11;16.30;99.90
8994;DHT22;4532;50.886;4.700;2023-03-30T18:53:38;16.20;99.90
8994;DHT22;4532;50.886;4.700;2023-03-30T18:56:10;16.20;99.90
8994;DHT22;4532;50.886;4.700;2023-03-30T18:58:38;16.10;99.90
8994;DHT22;4532;50.886;4.700;2023-03-30T19:01:08;16.10;99.90
8994;DHT22;4532;50.886;4.700;2023-03-30T19:03:35;16.00;99.90
8994;DHT22;4532;50.886;4.700;2023-03-30T19:06:08;16.00;99.90
8994;DHT22;4532;50.886;4.700;2023-03-30T19:08:37;16.00;99.90
8994;DHT22;4532;50.886;4.700;2023-03-30T19:11:04;15.90;99.90
8994;DHT22;4532;50.886;4.700;2023-03-30T19:13:33;15.90;99.90
8994;DHT22;4532;50.886;4.700;2023-03-30T19:16:00;15.80;99.90
8994;DHT22;4532;50.886;4.700;2023-03-30T19:18:32;15.80;99.90
8994;DHT22;4532;50.886;4.700;2023-03-30T19:21:01;15.80;99.90
8994;DHT22;4532;50.886;4.700;2023-03-30T19:23:28;15.80;99.90